Time;durP1;ratioP1;P1;durP2;ratioP2;P2;SDS_P1;SDS_P2;PMS_P1;PMS_P2;Temp;Humidity;BMP_temperature;BMP_pressure;BME280_temperature;BME280_humidity;BME280_pressure;Samples;Min_cycle;Max_cycle;Signal;HPM_P1;HPM_P2
2023/05/24 00:01:37;;;;;;;23.35;11.38;;;17.50;99.90;;;;;;4926296;29;20032;-75
2023/05/24 00:04:02;;;;;;;19.42;11.00;;;17.50;99.90;;;;;;4920628;29;20035;-74
2023/05/24 00:06:29;;;;;;;22.92;11.88;;;17.50;99.90;;;;;;4923440;29;20031;-75
2023/05/24 00:08:55;;;;;;;20.45;11.32;;;17.50;99.90;;;;;;4919812;29;20032;-76
2023/05/24 00:11:21;;;;;;;17.95;11.38;;;17.50;99.90;;;;;;4920370;29;20052;-74
2023/05/24 00:13:48;;;;;;;17.35;10.27;;;17.50;99.90;;;;;;4917324;29;20032;-74
2023/05/24 00:16:14;;;;;;;19.60;10.82;;;17.50;99.90;;;;;;4928007;29;20021;-75
2023/05/24 00:18:40;;;;;;;20.30;11.73;;;17.40;99.90;;;;;;4921689;29;20027;-74
2023/05/24 00:21:07;;;;;;;19.50;10.25;;;17.20;99.90;;;;;;4921448;29;20396;-74
2023/05/24 00:23:33;;;;;;;17.23;9.73;;;17.30;99.90;;;;;;4915975;29;20035;-75
2023/05/24 00:26:00;;;;;;;17.48;10.38;;;17.20;99.90;;;;;;4922481;29;20542;-74
2023/05/24 00:28:26;;;;;;;16.27;10.23;;;17.20;99.90;;;;;;4935282;29;20027;-73
2023/05/24 00:30:52;;;;;;;17.10;10.32;;;17.20;99.90;;;;;;4917270;29;20060;-73
2023/05/24 00:33:18;;;;;;;19.40;10.60;;;17.20;99.90;;;;;;4916346;29;20032;-74
2023/05/24 00:35:44;;;;;;;14.82;9.60;;;17.10;99.90;;;;;;4918960;29;20032;-74
2023/05/24 00:38:10;;;;;;;16.60;9.48;;;17.00;99.90;;;;;;4901149;29;20495;-74
2023/05/24 00:40:36;;;;;;;17.05;10.13;;;17.00;99.90;;;;;;4920532;29;20358;-74
2023/05/24 00:43:02;;;;;;;16.40;9.18;;;17.00;99.90;;;;;;4919108;29;20046;-73
2023/05/24 00:45:28;;;;;;;19.65;10.98;;;16.90;99.90;;;;;;4936745;29;20023;-75
2023/05/24 00:47:53;;;;;;;19.15;10.18;;;16.90;99.90;;;;;;4919448;29;20043;-75
2023/05/24 00:50:20;;;;;;;17.95;9.38;;;16.90;99.90;;;;;;4936169;29;20028;-73
2023/05/24 00:52:48;;;;;;;20.20;8.82;;;16.80;99.90;;;;;;4935817;29;20035;-74
2023/05/24 00:55:14;;;;;;;17.40;10.40;;;16.80;99.90;;;;;;4927031;29;20066;-74
2023/05/24 00:57:40;;;;;;;17.48;9.93;;;16.70;99.90;;;;;;4936503;29;20038;-74
2023/05/24 01:00:06;;;;;;;15.48;9.68;;;16.40;99.90;;;;;;4918658;29;20032;-73
2023/05/24 01:02:32;;;;;;;16.80;10.80;;;16.50;99.90;;;;;;4935895;29;20059;-74
2023/05/24 01:04:58;;;;;;;18.23;11.15;;;16.40;99.90;;;;;;4936347;29;20416;-73
2023/05/24 01:07:40;;;;;;;17.52;10.75;;;16.40;99.90;;;;;;4936610;29;20031;-74
2023/05/24 01:10:15;;;;;;;15.10;9.45;;;16.50;99.90;;;;;;4936264;29;20397;-74
2023/05/24 01:12:55;;;;;;;18.52;10.10;;;16.40;99.90;;;;;;4918039;29;20514;-73
2023/05/24 01:15:23;;;;;;;16.85;9.23;;;16.40;99.90;;;;;;4933938;29;20436;-74
2023/05/24 01:18:14;;;;;;;16.27;9.32;;;16.40;99.90;;;;;;4935869;29;20102;-74
2023/05/24 01:20:41;;;;;;;15.88;8.77;;;16.30;99.90;;;;;;4935924;29;20114;-74
2023/05/24 01:23:15;;;;;;;16.13;10.30;;;16.30;99.90;;;;;;4935779;29;20035;-73
2023/05/24 01:26:21;;;;;;;14.23;8.93;;;16.30;99.90;;;;;;4935824;29;20079;-74
2023/05/24 01:28:47;;;;;;;16.50;9.88;;;16.30;99.90;;;;;;4917409;29;20038;-74
2023/05/24 01:31:15;;;;;;;16.38;10.23;;;16.30;99.90;;;;;;4925200;29;20021;-74
2023/05/24 01:33:42;;;;;;;18.73;10.25;;;16.30;99.90;;;;;;4915276;29;20034;-75
2023/05/24 01:36:08;;;;;;;19.98;11.43;;;16.30;99.90;;;;;;4917121;29;20036;-73
2023/05/24 01:38:34;;;;;;;17.90;10.25;;;16.20;99.90;;;;;;4920793;29;20024;-74
2023/05/24 01:41:38;;;;;;;17.88;10.77;;;16.30;99.90;;;;;;4900062;29;20036;-74
2023/05/24 01:44:39;;;;;;;19.90;11.40;;;16.30;99.90;;;;;;4822306;29;20046;-74
2023/05/24 01:47:22;;;;;;;16.52;10.00;;;16.20;99.90;;;;;;4813480;29;20138;-73
2023/05/24 01:49:52;;;;;;;18.48;10.95;;;16.30;99.90;;;;;;4827045;29;20083;-74
2023/05/24 01:52:22;;;;;;;16.23;10.02;;;16.30;99.90;;;;;;4824260;29;20030;-73
2023/05/24 01:54:52;;;;;;;18.27;10.18;;;16.30;99.90;;;;;;4820715;29;20125;-75
2023/05/24 01:57:21;;;;;;;17.73;10.18;;;16.30;99.90;;;;;;4820152;29;20038;-74
2023/05/24 01:59:48;;;;;;;15.95;9.32;;;16.30;99.90;;;;;;4823776;29;20117;-73
2023/05/24 02:02:14;;;;;;;19.30;9.75;;;16.30;99.90;;;;;;4823389;29;20099;-75
2023/05/24 02:04:40;;;;;;;13.40;9.05;;;16.40;99.90;;;;;;4819777;29;20552;-73
2023/05/24 02:07:06;;;;;;;17.92;10.88;;;16.30;99.90;;;;;;4820250;29;20133;-74
2023/05/24 02:09:32;;;;;;;18.73;10.27;;;16.30;99.90;;;;;;4820158;29;20101;-75
2023/05/24 02:11:58;;;;;;;16.58;10.98;;;16.10;99.90;;;;;;4820262;29;20050;-74
2023/05/24 02:14:23;;;;;;;17.25;10.55;;;16.10;99.90;;;;;;4823862;29;20576;-75
2023/05/24 02:16:49;;;;;;;17.27;9.95;;;16.10;99.90;;;;;;4819920;29;20047;-75
2023/05/24 02:19:16;;;;;;;16.48;9.73;;;15.90;99.90;;;;;;4826488;29;20027;-74
2023/05/24 02:21:42;;;;;;;19.33;11.48;;;15.70;99.90;;;;;;4925911;29;20028;-74
2023/05/24 02:24:11;;;;;;;20.15;10.63;;;15.60;99.90;;;;;;4914134;29;20067;-74
2023/05/24 02:26:37;;;;;;;16.58;9.65;;;15.60;99.90;;;;;;4921205;29;20086;-74
2023/05/24 02:29:04;;;;;;;16.63;9.95;;;15.60;99.90;;;;;;4917423;29;20032;-74
2023/05/24 02:31:30;;;;;;;15.52;9.98;;;15.70;99.90;;;;;;4914765;29;20499;-75
2023/05/24 02:33:57;;;;;;;18.38;9.20;;;15.80;99.90;;;;;;4916410;29;20039;-75
2023/05/24 02:36:23;;;;;;;17.65;10.32;;;15.80;99.90;;;;;;4919442;29;20043;-74
2023/05/24 02:38:50;;;;;;;16.83;10.48;;;15.80;99.90;;;;;;4913575;29;20393;-74
2023/05/24 02:41:17;;;;;;;17.17;9.18;;;15.80;99.90;;;;;;4921037;29;20107;-73
2023/05/24 02:43:44;;;;;;;20.77;10.10;;;15.80;99.90;;;;;;4915334;29;20187;-74
2023/05/24 02:46:10;;;;;;;15.77;9.75;;;15.80;99.90;;;;;;4914655;29;20020;-74
2023/05/24 02:48:36;;;;;;;18.35;10.07;;;15.80;99.90;;;;;;4896689;29;20160;-74
2023/05/24 02:51:02;;;;;;;20.63;11.20;;;15.80;99.90;;;;;;4896753;29;20031;-74
2023/05/24 02:53:29;;;;;;;18.20;11.23;;;15.80;99.90;;;;;;4897216;29;20052;-74
2023/05/24 02:55:55;;;;;;;16.42;10.30;;;15.80;99.90;;;;;;4916230;29;20122;-75
2023/05/24 02:58:20;;;;;;;15.98;9.98;;;15.80;99.90;;;;;;4900677;29;20031;-75
2023/05/24 03:00:49;;;;;;;17.63;10.60;;;15.80;99.90;;;;;;4917062;29;20043;-73
2023/05/24 03:03:16;;;;;;;21.35;11.77;;;15.80;99.90;;;;;;4900807;29;20134;-74
2023/05/24 03:05:44;;;;;;;15.55;9.82;;;15.80;99.90;;;;;;4921982;29;20384;-75
2023/05/24 03:08:11;;;;;;;21.80;10.80;;;15.80;99.90;;;;;;4901109;29;20024;-74
2023/05/24 03:10:37;;;;;;;20.02;12.00;;;15.70;99.90;;;;;;4922401;29;20047;-75
2023/05/24 03:13:05;;;;;;;21.05;12.18;;;15.80;99.90;;;;;;4916901;29;20400;-74
2023/05/24 03:15:34;;;;;;;16.77;10.02;;;15.70;99.90;;;;;;4921446;29;20028;-74
2023/05/24 03:18:01;;;;;;;19.02;12.70;;;15.60;99.90;;;;;;4917059;29;20403;-74
2023/05/24 03:20:27;;;;;;;23.08;11.88;;;15.40;99.90;;;;;;4905246;29;20058;-73
2023/05/24 03:22:53;;;;;;;21.80;11.93;;;15.40;99.90;;;;;;4921429;29;20071;-74
2023/05/24 03:25:19;;;;;;;18.35;11.00;;;15.50;99.90;;;;;;4916598;29;20027;-74
2023/05/24 03:27:45;;;;;;;21.02;11.80;;;15.60;99.90;;;;;;4901875;29;20035;-73
2023/05/24 03:30:12;;;;;;;18.02;11.30;;;15.70;99.90;;;;;;4930638;29;20490;-74
2023/05/24 03:32:47;;;;;;;16.52;11.02;;;15.80;99.90;;;;;;4913274;29;20043;-74
2023/05/24 03:35:13;;;;;;;25.05;11.55;;;15.80;99.90;;;;;;4892727;29;20031;-74
2023/05/24 03:37:39;;;;;;;20.00;10.45;;;16.00;99.90;;;;;;4933047;29;20027;-74
2023/05/24 03:40:06;;;;;;;19.75;11.50;;;16.10;99.90;;;;;;4925694;29;20030;-73
2023/05/24 03:42:52;;;;;;;19.77;11.10;;;16.30;99.90;;;;;;4921956;29;20463;-74
2023/05/24 03:45:22;;;;;;;17.17;10.00;;;16.90;99.90;;;;;;4912593;29;20032;-75
2023/05/24 03:47:48;;;;;;;17.95;11.10;;;16.90;99.90;;;;;;4914306;29;20047;-74
2023/05/24 03:50:14;;;;;;;17.88;10.70;;;17.30;99.90;;;;;;4909655;29;20388;-75
2023/05/24 03:52:41;;;;;;;16.42;10.40;;;17.40;99.90;;;;;;4920533;29;20031;-75
2023/05/24 03:55:07;;;;;;;17.45;9.75;;;17.80;99.90;;;;;;4937587;29;20102;-75
2023/05/24 03:57:33;;;;;;;14.90;9.05;;;18.50;99.90;;;;;;4920673;29;20039;-75
2023/05/24 03:59:59;;;;;;;12.45;8.27;;;18.80;99.90;;;;;;4924596;29;20043;-76
2023/05/24 04:02:26;;;;;;;15.32;8.25;;;19.40;99.90;;;;;;4907221;29;20040;-75
2023/05/24 04:04:53;;;;;;;26.70;8.52;;;19.50;99.90;;;;;;4920226;29;20144;-75
2023/05/24 04:07:18;;;;;;;13.00;8.27;;;20.10;99.90;;;;;;4937323;29;20024;-75
2023/05/24 04:09:45;;;;;;;15.15;8.27;;;20.40;99.90;;;;;;4920511;29;20400;-75
2023/05/24 04:12:11;;;;;;;11.77;7.43;;;20.70;99.90;;;;;;4919951;29;20048;-75
2023/05/24 04:14:40;;;;;;;13.40;7.35;;;20.80;99.90;;;;;;4937280;29;20024;-75
2023/05/24 04:17:07;;;;;;;12.65;6.68;;;21.00;99.90;;;;;;4923849;29;20487;-76
2023/05/24 04:19:33;;;;;;;12.63;7.10;;;21.20;99.90;;;;;;4920085;29;20027;-76
2023/05/24 04:21:59;;;;;;;15.43;7.60;;;21.50;99.90;;;;;;4920069;29;20376;-76
2023/05/24 04:24:25;;;;;;;11.10;6.75;;;21.50;99.90;;;;;;4919191;29;20483;-77
2023/05/24 04:26:50;;;;;;;11.45;6.55;;;22.10;99.90;;;;;;4919849;29;20388;-75
2023/05/24 04:29:17;;;;;;;9.55;7.18;;;22.50;99.90;;;;;;4919698;29;20455;-76
2023/05/24 04:31:43;;;;;;;17.05;7.43;;;22.20;99.90;;;;;;4919926;29;20032;-77
2023/05/24 04:34:13;;;;;;;11.30;6.43;;;22.30;99.90;;;;;;4919301;29;20040;-76
2023/05/24 04:36:40;;;;;;;16.73;7.72;;;22.60;99.90;;;;;;4920063;29;20036;-77
2023/05/24 04:39:08;;;;;;;11.18;7.30;;;22.10;99.90;;;;;;4919862;29;20032;-76
2023/05/24 04:41:37;;;;;;;11.15;6.55;;;22.30;99.90;;;;;;4935827;29;20468;-76
2023/05/24 04:44:03;;;;;;;12.93;6.97;;;22.00;99.90;;;;;;4935564;29;20468;-76
2023/05/24 04:46:30;;;;;;;11.63;6.35;;;22.60;99.90;;;;;;4936508;29;20034;-77
2023/05/24 04:48:55;;;;;;;11.27;7.45;;;22.40;99.90;;;;;;4936411;29;20016;-77
2023/05/24 04:51:23;;;;;;;9.88;6.45;;;21.80;99.90;;;;;;4936572;29;20046;-76
2023/05/24 04:53:48;;;;;;;14.10;7.78;;;21.90;99.90;;;;;;4936676;29;20034;-76
2023/05/24 04:56:15;;;;;;;10.93;7.25;;;21.60;99.90;;;;;;4936069;29;20388;-75
2023/05/24 04:58:41;;;;;;;14.95;8.27;;;20.80;99.90;;;;;;4936243;29;20496;-76
2023/05/24 05:01:07;;;;;;;13.68;8.57;;;20.40;99.90;;;;;;4932250;29;20032;-77
2023/05/24 05:03:33;;;;;;;12.65;7.57;;;20.40;99.90;;;;;;4928168;29;20439;-76
2023/05/24 05:05:59;;;;;;;13.07;7.50;;;20.10;99.90;;;;;;4936099;29;20458;-77
2023/05/24 05:08:24;;;;;;;12.95;8.25;;;20.20;99.90;;;;;;4936254;29;20055;-76
2023/05/24 05:10:50;;;;;;;13.32;8.15;;;20.30;99.90;;;;;;4935808;29;20444;-76
2023/05/24 05:13:16;;;;;;;14.55;8.23;;;19.80;99.90;;;;;;4935927;29;20031;-76
2023/05/24 05:15:42;;;;;;;15.50;9.02;;;19.60;99.90;;;;;;4936377;29;20066;-75
2023/05/24 05:18:08;;;;;;;11.95;7.22;;;19.90;99.90;;;;;;4935448;29;20098;-76
2023/05/24 05:20:33;;;;;;;11.95;7.57;;;20.10;99.90;;;;;;4935770;29;20032;-77
2023/05/24 05:22:59;;;;;;;14.95;9.07;;;20.40;99.90;;;;;;4935780;29;20035;-77
2023/05/24 05:25:25;;;;;;;13.82;9.15;;;20.50;99.90;;;;;;4935743;29;20024;-76
2023/05/24 05:27:51;;;;;;;14.80;8.57;;;20.50;99.90;;;;;;4935470;29;20499;-76
2023/05/24 05:30:17;;;;;;;13.85;8.63;;;20.40;99.90;;;;;;4935679;29;20426;-76
2023/05/24 05:32:42;;;;;;;19.00;8.52;;;20.60;99.90;;;;;;4935646;29;20039;-77
2023/05/24 05:35:08;;;;;;;13.23;8.55;;;20.70;99.90;;;;;;4935706;29;20403;-76
2023/05/24 05:37:34;;;;;;;15.88;7.97;;;20.30;99.90;;;;;;4936120;29;20028;-76
2023/05/24 05:40:00;;;;;;;15.63;8.05;;;20.40;99.90;;;;;;4935917;29;20353;-76
2023/05/24 05:42:26;;;;;;;12.55;8.27;;;20.40;99.90;;;;;;4935415;29;20471;-77
2023/05/24 05:44:52;;;;;;;12.05;8.35;;;20.40;99.90;;;;;;4935149;29;20107;-75
2023/05/24 05:47:17;;;;;;;12.32;7.72;;;20.30;99.90;;;;;;4935752;29;20030;-75
2023/05/24 05:49:43;;;;;;;15.15;8.07;;;20.40;99.90;;;;;;4935073;29;20407;-76
2023/05/24 05:52:09;;;;;;;14.02;7.78;;;20.40;99.90;;;;;;4935913;29;20030;-76
2023/05/24 05:54:35;;;;;;;14.70;8.45;;;20.90;99.90;;;;;;4935555;29;20027;-78
2023/05/24 05:57:01;;;;;;;20.38;8.50;;;20.80;99.90;;;;;;4935172;29;20424;-77
2023/05/24 05:59:26;;;;;;;15.32;8.52;;;20.80;99.90;;;;;;4934682;29;20055;-77
2023/05/24 06:01:52;;;;;;;13.82;8.45;;;21.00;99.90;;;;;;4935462;29;20098;-78
2023/05/24 06:04:18;;;;;;;12.63;8.25;;;21.00;99.90;;;;;;4935359;29;20024;-76
2023/05/24 06:06:48;;;;;;;14.60;8.52;;;20.90;99.90;;;;;;4935189;29;20054;-76
2023/05/24 06:09:15;;;;;;;15.15;8.35;;;20.90;99.90;;;;;;4935149;29;20024;-76
2023/05/24 06:11:43;;;;;;;10.93;7.85;;;21.00;99.90;;;;;;4934734;29;20075;-76
2023/05/24 06:14:11;;;;;;;15.95;8.50;;;21.10;99.90;;;;;;4934565;29;20043;-76
2023/05/24 06:16:40;;;;;;;14.43;8.85;;;21.10;99.90;;;;;;4934458;29;20028;-77
2023/05/24 06:19:06;;;;;;;16.92;8.80;;;21.50;99.90;;;;;;4933766;29;20024;-76
2023/05/24 06:21:35;;;;;;;14.77;8.43;;;21.60;99.90;;;;;;4934953;29;20031;-75
2023/05/24 06:24:01;;;;;;;15.57;8.90;;;21.90;99.90;;;;;;4934780;29;20039;-76
2023/05/24 06:26:27;;;;;;;12.02;8.32;;;21.80;99.90;;;;;;4934742;29;20034;-76
2023/05/24 06:28:53;;;;;;;17.30;8.80;;;21.70;99.90;;;;;;4933825;29;20106;-75
2023/05/24 06:31:19;;;;;;;13.02;8.73;;;21.90;99.90;;;;;;4934768;29;20032;-76
2023/05/24 06:33:45;;;;;;;18.30;9.45;;;21.90;99.90;;;;;;4934382;29;20024;-76
2023/05/24 06:36:10;;;;;;;16.92;9.70;;;21.60;99.90;;;;;;4938264;29;20074;-78
2023/05/24 06:38:37;;;;;;;17.70;9.77;;;21.80;99.90;;;;;;4934488;29;20028;-77
2023/05/24 06:41:03;;;;;;;13.32;8.10;;;22.00;99.90;;;;;;4934801;29;20032;-78
2023/05/24 06:43:29;;;;;;;14.98;8.95;;;21.80;99.90;;;;;;4934087;29;20046;-78
2023/05/24 06:45:55;;;;;;;13.07;7.95;;;22.00;99.90;;;;;;4933927;29;20388;-78
2023/05/24 06:48:21;;;;;;;12.50;7.75;;;22.10;99.90;;;;;;4934175;29;20031;-78
2023/05/24 06:50:47;;;;;;;16.88;8.45;;;22.20;99.90;;;;;;4934081;29;20039;-78
2023/05/24 06:53:13;;;;;;;14.52;8.32;;;22.50;99.90;;;;;;4934701;29;20110;-79
2023/05/24 06:55:39;;;;;;;15.02;8.20;;;22.50;99.90;;;;;;4934615;29;20056;-78
2023/05/24 06:58:05;;;;;;;14.75;9.00;;;22.60;99.90;;;;;;4934093;29;20470;-77
2023/05/24 07:00:31;;;;;;;13.13;7.82;;;22.70;99.90;;;;;;4934397;29;20075;-77
2023/05/24 07:02:57;;;;;;;13.25;8.95;;;22.80;99.90;;;;;;4934655;29;20384;-75
2023/05/24 07:05:23;;;;;;;21.92;7.78;;;22.90;99.90;;;;;;4934212;29;20028;-77
2023/05/24 07:07:49;;;;;;;12.52;8.95;;;23.20;99.90;;;;;;4934606;29;20036;-78
2023/05/24 07:10:14;;;;;;;15.15;9.13;;;23.40;99.90;;;;;;4934080;29;20475;-78
2023/05/24 07:12:40;;;;;;;14.18;7.97;;;23.40;99.90;;;;;;4934230;29;20059;-76
2023/05/24 07:15:07;;;;;;;14.15;7.35;;;23.50;99.90;;;;;;4934253;29;20115;-76
2023/05/24 07:17:34;;;;;;;14.43;8.10;;;23.70;99.90;;;;;;4934700;29;20079;-76
2023/05/24 07:20:01;;;;;;;15.85;9.02;;;23.50;99.90;;;;;;4934015;29;20063;-75
2023/05/24 07:22:27;;;;;;;12.38;7.78;;;23.90;99.90;;;;;;4934641;29;20032;-75
2023/05/24 07:24:53;;;;;;;13.00;7.97;;;23.90;99.90;;;;;;4934323;29;20110;-77
2023/05/24 07:27:19;;;;;;;11.70;7.70;;;23.90;99.90;;;;;;4934445;29;20034;-76
2023/05/24 07:29:45;;;;;;;15.95;9.68;;;23.90;99.90;;;;;;4933686;29;20028;-76
2023/05/24 07:32:11;;;;;;;12.60;8.52;;;24.00;99.90;;;;;;4934171;29;20119;-77
2023/05/24 07:34:38;;;;;;;14.82;8.23;;;24.30;99.90;;;;;;4933802;29;20114;-77
2023/05/24 07:37:04;;;;;;;15.57;8.60;;;24.40;99.90;;;;;;4933401;29;20480;-77
2023/05/24 07:39:30;;;;;;;20.70;8.38;;;24.30;99.90;;;;;;4933732;29;20035;-78
2023/05/24 07:41:56;;;;;;;11.55;7.03;;;24.50;99.90;;;;;;4936740;29;20070;-78
2023/05/24 07:44:23;;;;;;;12.55;8.35;;;25.00;99.90;;;;;;4937145;29;20455;-78
2023/05/24 07:46:49;;;;;;;14.63;8.20;;;24.80;99.90;;;;;;4935051;29;20031;-77
2023/05/24 07:49:15;;;;;;;15.23;7.75;;;24.90;99.90;;;;;;4923140;29;20040;-77
2023/05/24 07:51:41;;;;;;;13.27;7.07;;;25.20;99.90;;;;;;4921145;29;20039;-77
2023/05/24 07:54:07;;;;;;;12.32;7.88;;;25.40;99.90;;;;;;4923049;29;20036;-76
2023/05/24 07:56:33;;;;;;;12.27;7.45;;;25.20;99.90;;;;;;4905507;29;20024;-76
2023/05/24 07:59:03;;;;;;;12.23;7.60;;;25.40;99.90;;;;;;4930678;29;20463;-77
2023/05/24 08:01:33;;;;;;;15.55;8.18;;;25.20;99.90;;;;;;4937524;29;20024;-76
2023/05/24 08:04:02;;;;;;;15.88;8.05;;;24.90;99.90;;;;;;4924534;29;20044;-77
2023/05/24 08:06:29;;;;;;;13.25;7.85;;;24.60;99.90;;;;;;4937202;29;20036;-76
2023/05/24 08:08:55;;;;;;;9.57;6.45;;;25.00;99.90;;;;;;4937236;29;20035;-77
2023/05/24 08:11:21;;;;;;;14.88;8.18;;;25.60;99.90;;;;;;4920143;29;20142;-76
2023/05/24 08:13:47;;;;;;;15.25;7.25;;;25.50;99.90;;;;;;4936561;29;20035;-75
2023/05/24 08:16:13;;;;;;;14.05;7.43;;;25.00;99.90;;;;;;4936630;29;20086;-76
2023/05/24 08:18:38;;;;;;;13.35;7.80;;;24.80;99.90;;;;;;4936973;29;20026;-74
2023/05/24 08:21:05;;;;;;;14.50;6.85;;;24.40;99.90;;;;;;4937394;29;20408;-75
2023/05/24 08:23:31;;;;;;;14.93;7.93;;;24.10;99.90;;;;;;4936890;29;20063;-77
2023/05/24 08:25:57;;;;;;;12.00;7.20;;;23.50;99.90;;;;;;4925442;29;20079;-75
2023/05/24 08:28:23;;;;;;;10.80;6.90;;;23.30;99.90;;;;;;4926117;29;20030;-76
2023/05/24 08:30:49;;;;;;;11.07;7.00;;;23.40;99.90;;;;;;4917154;29;20024;-75
2023/05/24 08:33:15;;;;;;;11.32;6.88;;;23.40;99.90;;;;;;4933861;29;20464;-76
2023/05/24 08:35:41;;;;;;;11.35;6.15;;;23.30;99.90;;;;;;4931043;29;20432;-75
2023/05/24 08:38:07;;;;;;;11.85;6.70;;;23.50;99.90;;;;;;4923566;29;20115;-76
2023/05/24 08:40:33;;;;;;;12.63;6.65;;;23.30;99.90;;;;;;4937070;29;20024;-76
2023/05/24 08:43:00;;;;;;;12.23;7.15;;;23.50;99.90;;;;;;4936466;29;20365;-76
2023/05/24 08:45:29;;;;;;;10.93;6.60;;;23.60;99.90;;;;;;4936905;29;20190;-76
2023/05/24 08:47:57;;;;;;;9.85;6.35;;;23.50;99.90;;;;;;4936439;29;20036;-77
2023/05/24 08:50:23;;;;;;;10.80;6.28;;;23.40;99.90;;;;;;4936674;29;20016;-77
2023/05/24 08:52:50;;;;;;;9.68;6.65;;;23.50;99.90;;;;;;4935550;29;20384;-77
2023/05/24 08:55:17;;;;;;;8.82;5.25;;;23.30;99.90;;;;;;4937101;29;20572;-75
2023/05/24 08:57:44;;;;;;;9.23;5.07;;;23.40;99.90;;;;;;4936249;29;20475;-77
2023/05/24 09:00:11;;;;;;;10.50;6.20;;;23.40;99.90;;;;;;4936543;29;20402;-77
2023/05/24 09:02:39;;;;;;;13.88;7.22;;;23.30;99.90;;;;;;4936441;29;20043;-77
2023/05/24 09:05:09;;;;;;;8.93;5.82;;;23.30;99.90;;;;;;4936388;29;20498;-77
2023/05/24 09:07:35;;;;;;;8.60;6.07;;;23.30;99.90;;;;;;4936301;29;20035;-77
2023/05/24 09:10:05;;;;;;;10.70;6.13;;;23.20;99.90;;;;;;4936234;29;20020;-76
2023/05/24 09:12:32;;;;;;;10.18;6.28;;;23.10;99.90;;;;;;4936257;29;20047;-77
2023/05/24 09:14:58;;;;;;;10.45;6.22;;;23.20;99.90;;;;;;4936465;29;20019;-77
2023/05/24 09:17:25;;;;;;;12.27;6.25;;;23.00;99.90;;;;;;4919318;29;20043;-77
2023/05/24 09:19:54;;;;;;;11.23;6.70;;;22.90;99.90;;;;;;4936487;29;20024;-77
2023/05/24 09:22:24;;;;;;;11.18;5.68;;;22.70;99.90;;;;;;4935947;29;20098;-76
2023/05/24 09:24:51;;;;;;;17.75;7.10;;;22.80;99.90;;;;;;4936151;29;20031;-76
2023/05/24 09:27:20;;;;;;;11.88;6.72;;;22.80;99.90;;;;;;4936065;29;20114;-77
2023/05/24 09:29:52;;;;;;;10.32;5.65;;;22.70;99.90;;;;;;4936092;29;20096;-77
2023/05/24 09:32:22;;;;;;;13.35;6.80;;;22.60;99.90;;;;;;4935926;29;20023;-77
2023/05/24 09:34:48;;;;;;;11.75;6.75;;;22.60;99.90;;;;;;4935788;29;20035;-76
2023/05/24 09:37:18;;;;;;;11.55;5.78;;;22.50;99.90;;;;;;4935958;29;20494;-77
2023/05/24 09:39:50;;;;;;;15.07;6.53;;;22.40;99.90;;;;;;4935851;29;20110;-77
2023/05/24 09:42:23;;;;;;;10.50;5.72;;;22.30;99.90;;;;;;4935952;29;20027;-77
2023/05/24 09:45:05;;;;;;;11.75;5.97;;;22.30;99.90;;;;;;4935814;29;20388;-76
2023/05/24 09:47:33;;;;;;;11.20;6.07;;;22.10;99.90;;;;;;4935518;29;20471;-76
2023/05/24 09:50:03;;;;;;;7.65;4.97;;;22.20;99.90;;;;;;4935701;29;20087;-77
2023/05/24 09:52:29;;;;;;;7.40;4.97;;;22.20;99.90;;;;;;4935468;29;20130;-77
2023/05/24 09:54:54;;;;;;;11.27;4.70;;;22.20;99.90;;;;;;4935669;29;20115;-77
2023/05/24 09:57:24;;;;;;;7.30;5.40;;;22.40;99.90;;;;;;4935436;29;20530;-77
2023/05/24 09:59:51;;;;;;;7.88;5.60;;;22.50;99.90;;;;;;4923156;29;20392;-76
2023/05/24 10:02:20;;;;;;;11.55;5.30;;;22.60;99.90;;;;;;4935157;29;20043;-76
2023/05/24 10:04:46;;;;;;;10.30;5.03;;;22.70;99.90;;;;;;4935285;29;20208;-77
2023/05/24 10:07:14;;;;;;;6.85;4.30;;;22.80;99.90;;;;;;4935385;29;20373;-77
2023/05/24 10:09:41;;;;;;;8.85;4.68;;;22.80;99.90;;;;;;4935253;29;20075;-77
2023/05/24 10:12:07;;;;;;;6.45;4.20;;;22.80;99.90;;;;;;4935078;29;20154;-76
2023/05/24 10:14:35;;;;;;;6.00;4.30;;;22.90;99.90;;;;;;4935062;29;20391;-76
2023/05/24 10:17:05;;;;;;;9.20;5.60;;;23.00;99.90;;;;;;4934907;29;20091;-76
2023/05/24 10:19:36;;;;;;;10.02;4.78;;;23.10;99.90;;;;;;4935121;29;20107;-76
2023/05/24 10:22:09;;;;;;;9.68;5.70;;;23.20;99.90;;;;;;4934708;29;20035;-76
2023/05/24 10:24:42;;;;;;;17.02;5.90;;;23.20;99.90;;;;;;4935092;29;20103;-76
2023/05/24 10:27:14;;;;;;;11.95;5.55;;;23.20;99.90;;;;;;4934770;29;20031;-75
2023/05/24 10:29:45;;;;;;;13.10;6.97;;;23.20;99.90;;;;;;4918144;29;20031;-76
2023/05/24 10:32:17;;;;;;;11.68;5.30;;;23.20;99.90;;;;;;4934714;29;20262;-76
2023/05/24 10:34:45;;;;;;;11.35;5.50;;;23.00;99.90;;;;;;4937943;29;20491;-77
2023/05/24 10:37:11;;;;;;;9.13;4.97;;;23.00;99.90;;;;;;4943808;29;20043;-76
2023/05/24 10:39:37;;;;;;;10.82;5.15;;;22.80;99.90;;;;;;4934977;29;20030;-76
2023/05/24 10:42:04;;;;;;;8.40;5.40;;;22.70;99.90;;;;;;4935138;29;20387;-77
2023/05/24 10:44:32;;;;;;;13.70;6.28;;;22.50;99.90;;;;;;4934558;29;20488;-76
2023/05/24 10:47:15;;;;;;;9.73;5.13;;;22.50;99.90;;;;;;4934983;29;20364;-79
2023/05/24 10:49:53;;;;;;;9.63;5.63;;;22.90;99.90;;;;;;4934822;29;20496;-76
2023/05/24 10:52:19;;;;;;;9.60;5.65;;;23.20;99.90;;;;;;4934673;29;20039;-77
2023/05/24 10:55:09;;;;;;;9.90;5.65;;;23.20;99.90;;;;;;4934808;29;20028;-77
2023/05/24 10:57:35;;;;;;;9.90;5.50;;;23.30;99.90;;;;;;4934610;29;20126;-76
2023/05/24 11:00:24;;;;;;;12.57;6.50;;;23.20;99.90;;;;;;4934699;29;20106;-77
2023/05/24 11:02:58;;;;;;;10.57;5.80;;;23.10;99.90;;;;;;4934781;29;20035;-76
2023/05/24 11:05:24;;;;;;;9.90;5.43;;;22.90;99.90;;;;;;4934751;29;20044;-76
2023/05/24 11:07:58;;;;;;;9.75;5.32;;;23.00;99.90;;;;;;4934604;29;20039;-77
2023/05/24 11:10:30;;;;;;;8.77;5.22;;;22.90;99.90;;;;;;4934706;29;20036;-76
2023/05/24 11:13:01;;;;;;;8.55;4.70;;;22.90;99.90;;;;;;4934409;29;20048;-76
2023/05/24 11:15:28;;;;;;;10.13;5.55;;;23.00;99.90;;;;;;4936379;29;20075;-76
2023/05/24 11:18:11;;;;;;;8.70;5.20;;;23.30;99.90;;;;;;4938287;29;20379;-76
2023/05/24 11:20:38;;;;;;;11.13;5.35;;;23.40;99.90;;;;;;4938193;29;20031;-76
2023/05/24 11:23:08;;;;;;;9.65;5.80;;;23.50;99.90;;;;;;4938216;29;20031;-76
2023/05/24 11:25:37;;;;;;;9.73;5.65;;;23.60;99.90;;;;;;4937915;29;20384;-77
2023/05/24 11:28:07;;;;;;;8.90;4.80;;;23.50;99.90;;;;;;4938176;29;20103;-76
2023/05/24 11:30:41;;;;;;;10.40;4.72;;;23.50;99.90;;;;;;4937946;29;20027;-76
2023/05/24 11:33:24;;;;;;;11.00;5.93;;;23.40;99.90;;;;;;4937993;29;20114;-76
2023/05/24 11:35:51;;;;;;;8.85;5.55;;;23.40;99.90;;;;;;4938308;29;20495;-77
2023/05/24 11:38:17;;;;;;;9.95;5.63;;;23.60;99.90;;;;;;4937801;29;20020;-77
2023/05/24 11:40:45;;;;;;;9.25;5.95;;;23.50;99.90;;;;;;4938072;29;20047;-76
2023/05/24 11:43:21;;;;;;;8.35;5.40;;;23.70;99.90;;;;;;4937523;29;20040;-77
2023/05/24 11:45:50;;;;;;;14.70;6.70;;;23.70;99.90;;;;;;4937973;29;20046;-76
2023/05/24 11:48:18;;;;;;;13.25;7.07;;;23.40;99.90;;;;;;4920782;29;20505;-75
2023/05/24 11:50:47;;;;;;;12.63;7.05;;;23.50;99.90;;;;;;4937721;29;20051;-74
2023/05/24 11:53:17;;;;;;;8.77;5.93;;;23.70;99.90;;;;;;4937750;29;20099;-75
2023/05/24 11:55:43;;;;;;;14.77;6.50;;;23.70;99.90;;;;;;4937627;29;20048;-78
2023/05/24 11:58:49;;;;;;;11.20;6.00;;;24.00;99.90;;;;;;4920585;29;20031;-75
2023/05/24 12:01:27;;;;;;;8.57;5.50;;;24.30;99.90;;;;;;4860359;29;20039;-76
2023/05/24 12:03:54;;;;;;;12.18;6.22;;;24.30;99.90;;;;;;4860141;29;20525;-77
2023/05/24 12:06:21;;;;;;;9.00;5.45;;;24.40;99.90;;;;;;4860524;29;20533;-77
2023/05/24 12:08:47;;;;;;;9.40;5.53;;;24.30;99.90;;;;;;4860275;29;20054;-76
2023/05/24 12:11:16;;;;;;;10.27;6.43;;;24.40;99.90;;;;;;4860266;29;20049;-78
2023/05/24 12:13:42;;;;;;;12.85;7.55;;;24.50;99.90;;;;;;4860186;29;20041;-78
2023/05/24 12:16:11;;;;;;;12.07;6.95;;;24.50;99.90;;;;;;4859977;29;20445;-77
2023/05/24 12:18:38;;;;;;;9.45;6.00;;;24.20;99.90;;;;;;4858846;29;20046;-76
2023/05/24 12:21:10;;;;;;;14.93;6.95;;;24.10;99.90;;;;;;4849094;29;20150;-75
2023/05/24 12:23:36;;;;;;;12.57;6.38;;;24.00;99.90;;;;;;4859812;29;20056;-75
2023/05/24 12:26:03;;;;;;;14.73;6.75;;;24.10;99.90;;;;;;4859163;29;20037;-76
2023/05/24 12:28:37;;;;;;;11.45;6.53;;;24.10;99.90;;;;;;4859324;29;20033;-76
2023/05/24 12:31:04;;;;;;;11.15;6.70;;;24.30;99.90;;;;;;4867479;29;20044;-75
2023/05/24 12:33:30;;;;;;;13.43;6.60;;;24.50;99.90;;;;;;4916577;29;20361;-76
2023/05/24 12:35:57;;;;;;;11.48;7.18;;;24.30;99.90;;;;;;4936899;29;20387;-75
2023/05/24 12:38:26;;;;;;;8.43;5.30;;;24.40;99.90;;;;;;4937088;29;20087;-75
2023/05/24 12:40:53;;;;;;;11.77;6.38;;;24.40;99.90;;;;;;4936825;29;20035;-75